Time;durP1;ratioP1;P1;durP2;ratioP2;P2;SDS_P1;SDS_P2;PMS_P1;PMS_P2;Temp;Humidity;BMP_temperature;BMP_pressure;BME280_temperature;BME280_humidity;BME280_pressure;Samples;Min_cycle;Max_cycle;Signal;HPM_P1;HPM_P2
2021/11/29 00:01:39;;;;;;;3.80;3.40;;;;;;;;;;4985484;28;20206;-49
2021/11/29 00:04:05;;;;;;;4.00;3.60;;;;;;;;;;5009312;28;20737;-48
2021/11/29 00:06:32;;;;;;;3.80;3.50;;;;;;;;;;5008495;28;20417;-49
2021/11/29 00:08:58;;;;;;;5.27;3.87;;;;;;;;;;5008937;28;20189;-49
2021/11/29 00:11:24;;;;;;;4.13;3.70;;;;;;;;;;4987373;28;20433;-49
2021/11/29 00:13:51;;;;;;;4.73;4.03;;;;;;;;;;4990734;28;20217;-52
2021/11/29 00:16:17;;;;;;;5.33;4.40;;;;;;;;;;5008226;28;20429;-49
2021/11/29 00:18:44;;;;;;;5.30;3.40;;;;;;;;;;4988134;28;20212;-49
2021/11/29 00:21:12;;;;;;;6.27;4.10;;;;;;;;;;4990653;28;20245;-50
2021/11/29 00:23:39;;;;;;;5.00;4.20;;;;;;;;;;5008634;28;20614;-50
2021/11/29 00:26:05;;;;;;;4.07;3.67;;;;;;;;;;4974916;28;20429;-50
2021/11/29 00:28:32;;;;;;;4.77;4.20;;;;;;;;;;4981987;28;20468;-49
2021/11/29 00:30:58;;;;;;;4.20;3.70;;;;;;;;;;4999687;28;20946;-48
2021/11/29 00:33:24;;;;;;;4.60;3.67;;;;;;;;;;5006937;28;20669;-49
2021/11/29 00:35:50;;;;;;;5.13;3.53;;;;;;;;;;4966577;28;20183;-48
2021/11/29 00:38:17;;;;;;;4.20;3.67;;;;;;;;;;4990555;28;20182;-50
2021/11/29 00:40:46;;;;;;;4.87;4.20;;;;;;;;;;4989926;28;20444;-50
2021/11/29 00:43:12;;;;;;;4.87;3.77;;;;;;;;;;5005768;28;20421;-49
2021/11/29 00:45:38;;;;;;;4.83;3.60;;;;;;;;;;4978097;28;20923;-49
2021/11/29 00:48:05;;;;;;;4.90;3.90;;;;;;;;;;4988868;28;20523;-49
2021/11/29 00:50:36;;;;;;;4.27;3.70;;;;;;;;;;4990914;28;20465;-50
2021/11/29 00:53:03;;;;;;;4.07;3.53;;;;;;;;;;5007681;28;20848;-48
2021/11/29 00:55:29;;;;;;;6.43;4.47;;;;;;;;;;4988899;28;20483;-50
2021/11/29 00:57:56;;;;;;;3.83;3.53;;;;;;;;;;4989164;28;20830;-49
2021/11/29 01:00:22;;;;;;;4.30;3.90;;;;;;;;;;4994377;28;20301;-50
2021/11/29 01:02:49;;;;;;;4.33;3.90;;;;;;;;;;4988981;28;20840;-49
2021/11/29 01:05:15;;;;;;;3.80;3.50;;;;;;;;;;4989954;28;21000;-50
2021/11/29 01:07:41;;;;;;;4.90;3.77;;;;;;;;;;5008247;28;20464;-50
2021/11/29 01:10:09;;;;;;;4.40;4.00;;;;;;;;;;4990500;28;20465;-50
2021/11/29 01:12:35;;;;;;;5.17;3.80;;;;;;;;;;4988803;28;20418;-51
2021/11/29 01:15:01;;;;;;;4.77;3.90;;;;;;;;;;5006295;28;20422;-49
2021/11/29 01:17:28;;;;;;;4.80;3.70;;;;;;;;;;4986497;28;20457;-51
2021/11/29 01:19:54;;;;;;;4.20;3.60;;;;;;;;;;4989769;28;20418;-49
2021/11/29 01:22:20;;;;;;;4.50;3.83;;;;;;;;;;5007764;28;20585;-51
2021/11/29 01:24:47;;;;;;;4.90;3.83;;;;;;;;;;5007351;28;20422;-49
2021/11/29 01:27:13;;;;;;;3.97;3.67;;;;;;;;;;4989202;28;20785;-50
2021/11/29 01:29:39;;;;;;;4.20;3.80;;;;;;;;;;4995312;28;20504;-49
2021/11/29 01:32:06;;;;;;;4.40;3.80;;;;;;;;;;4994100;28;20487;-50
2021/11/29 01:34:33;;;;;;;5.43;3.90;;;;;;;;;;4988979;28;20851;-50
2021/11/29 01:36:59;;;;;;;4.90;4.40;;;;;;;;;;4988275;28;20500;-51
2021/11/29 01:39:25;;;;;;;5.87;4.57;;;;;;;;;;4991222;28;20464;-51
2021/11/29 01:41:53;;;;;;;4.97;4.47;;;;;;;;;;4991188;28;20545;-49
2021/11/29 01:44:19;;;;;;;4.13;3.67;;;;;;;;;;5006745;28;20905;-49
2021/11/29 01:46:46;;;;;;;4.37;3.87;;;;;;;;;;5006642;28;20430;-51
2021/11/29 01:49:12;;;;;;;4.00;3.40;;;;;;;;;;4995054;28;20214;-49
2021/11/29 01:51:39;;;;;;;4.60;4.07;;;;;;;;;;5007912;28;20418;-49
2021/11/29 01:54:05;;;;;;;3.70;3.13;;;;;;;;;;4987362;28;20444;-50
2021/11/29 01:56:32;;;;;;;5.43;3.90;;;;;;;;;;5007354;28;20790;-50
2021/11/29 01:58:58;;;;;;;3.70;3.23;;;;;;;;;;5006929;28;20420;-50
2021/11/29 02:01:26;;;;;;;4.87;3.73;;;;;;;;;;5006079;28;20290;-48
2021/11/29 02:03:57;;;;;;;5.67;3.67;;;;;;;;;;5002413;28;20966;-50
2021/11/29 02:06:30;;;;;;;3.87;3.30;;;;;;;;;;4973623;28;20426;-51
2021/11/29 02:08:57;;;;;;;5.30;3.73;;;;;;;;;;5007454;28;20984;-51
2021/11/29 02:11:24;;;;;;;7.27;4.07;;;;;;;;;;5008431;28;20479;-51
2021/11/29 02:13:59;;;;;;;5.50;3.93;;;;;;;;;;5004645;28;20417;-50
2021/11/29 02:16:25;;;;;;;6.00;3.87;;;;;;;;;;4987579;28;20482;-50
2021/11/29 02:18:52;;;;;;;5.30;3.50;;;;;;;;;;4992655;28;20539;-51
2021/11/29 02:21:20;;;;;;;4.27;3.87;;;;;;;;;;4992837;28;20436;-50
2021/11/29 02:23:48;;;;;;;5.47;3.60;;;;;;;;;;5010786;28;20899;-50
2021/11/29 02:26:18;;;;;;;4.67;4.03;;;;;;;;;;4993534;28;20473;-51
2021/11/29 02:28:45;;;;;;;3.43;3.13;;;;;;;;;;5010377;28;20939;-50
2021/11/29 02:31:19;;;;;;;8.20;3.93;;;;;;;;;;4983307;28;20438;-51
2021/11/29 02:33:49;;;;;;;5.40;3.17;;;;;;;;;;5002138;28;20416;-50
2021/11/29 02:36:15;;;;;;;4.30;3.30;;;;;;;;;;4993724;28;20920;-51
2021/11/29 02:38:42;;;;;;;4.93;3.53;;;;;;;;;;5010796;28;20433;-52
2021/11/29 02:41:08;;;;;;;4.60;3.73;;;;;;;;;;5011172;28;20448;-49
2021/11/29 02:43:37;;;;;;;3.83;2.87;;;;;;;;;;5010378;28;20504;-51
2021/11/29 02:46:04;;;;;;;4.07;3.33;;;;;;;;;;4990891;28;20429;-51
2021/11/29 02:48:40;;;;;;;5.30;3.90;;;;;;;;;;5010276;28;20556;-50
2021/11/29 02:51:07;;;;;;;6.07;3.63;;;;;;;;;;4994010;28;21016;-52
2021/11/29 02:53:33;;;;;;;5.77;3.37;;;;;;;;;;5003751;28;20507;-51
2021/11/29 02:55:59;;;;;;;5.37;3.30;;;;;;;;;;5008995;28;20465;-49
2021/11/29 02:58:25;;;;;;;5.17;3.70;;;;;;;;;;5016968;28;20482;-50
2021/11/29 03:00:51;;;;;;;4.73;3.37;;;;;;;;;;5000408;28;20432;-52
2021/11/29 03:03:18;;;;;;;3.97;3.60;;;;;;;;;;5010400;28;20912;-50
2021/11/29 03:05:48;;;;;;;3.73;3.33;;;;;;;;;;5009167;28;20485;-49
2021/11/29 03:08:14;;;;;;;4.47;3.13;;;;;;;;;;4991614;28;20457;-50
2021/11/29 03:10:40;;;;;;;4.87;3.80;;;;;;;;;;4996473;28;20515;-51
2021/11/29 03:13:06;;;;;;;3.90;3.30;;;;;;;;;;4998710;28;20421;-52
2021/11/29 03:15:33;;;;;;;4.10;3.47;;;;;;;;;;4991575;28;20836;-51
2021/11/29 03:17:59;;;;;;;5.10;3.33;;;;;;;;;;4994899;28;20428;-50
2021/11/29 03:20:25;;;;;;;4.00;3.17;;;;;;;;;;5024159;28;20429;-54
2021/11/29 03:22:51;;;;;;;4.77;3.83;;;;;;;;;;5011861;28;20772;-50
2021/11/29 03:25:17;;;;;;;7.13;3.37;;;;;;;;;;5029696;28;20415;-51
2021/11/29 03:27:44;;;;;;;4.10;3.37;;;;;;;;;;4995702;28;20826;-50
2021/11/29 03:30:11;;;;;;;4.30;2.80;;;;;;;;;;4991307;28;20520;-50
2021/11/29 03:32:38;;;;;;;3.53;2.97;;;;;;;;;;5010034;28;20947;-50
2021/11/29 03:35:06;;;;;;;3.57;2.63;;;;;;;;;;4997316;28;20491;-50
2021/11/29 03:37:32;;;;;;;8.43;3.20;;;;;;;;;;4996296;28;20423;-50
2021/11/29 03:39:58;;;;;;;4.10;3.17;;;;;;;;;;4993821;28;20776;-52
2021/11/29 03:42:25;;;;;;;3.60;3.20;;;;;;;;;;4999542;28;20437;-49
2021/11/29 03:44:51;;;;;;;3.97;2.80;;;;;;;;;;5022357;28;20426;-51
2021/11/29 03:47:17;;;;;;;3.93;3.17;;;;;;;;;;5007552;28;20465;-51
2021/11/29 03:49:44;;;;;;;3.50;2.93;;;;;;;;;;5035236;28;20989;-50
2021/11/29 03:52:10;;;;;;;3.57;3.10;;;;;;;;;;5022577;28;20448;-52
2021/11/29 03:54:36;;;;;;;4.40;3.00;;;;;;;;;;5013424;28;20499;-50
2021/11/29 03:57:03;;;;;;;6.50;3.20;;;;;;;;;;5029662;28;20463;-51
2021/11/29 03:59:29;;;;;;;2.97;2.70;;;;;;;;;;5022931;28;20445;-50
2021/11/29 04:01:55;;;;;;;3.23;2.93;;;;;;;;;;5010332;28;20503;-50
2021/11/29 04:04:22;;;;;;;3.53;3.07;;;;;;;;;;5011786;28;20460;-50
2021/11/29 04:06:48;;;;;;;5.23;2.90;;;;;;;;;;5010596;28;20460;-51
2021/11/29 04:09:14;;;;;;;4.60;3.20;;;;;;;;;;4994976;28;20424;-50
2021/11/29 04:11:40;;;;;;;4.60;2.97;;;;;;;;;;4993872;28;20425;-51
2021/11/29 04:14:06;;;;;;;3.53;2.63;;;;;;;;;;5026787;28;20421;-50
2021/11/29 04:16:32;;;;;;;3.23;2.90;;;;;;;;;;5027671;28;20926;-51
2021/11/29 04:18:59;;;;;;;3.00;2.13;;;;;;;;;;5028322;28;20815;-51
2021/11/29 04:21:25;;;;;;;3.20;2.63;;;;;;;;;;5027648;28;20940;-51
2021/11/29 04:23:52;;;;;;;3.70;2.20;;;;;;;;;;5028155;28;20441;-50
2021/11/29 04:26:18;;;;;;;3.27;2.80;;;;;;;;;;5028575;28;20425;-51
2021/11/29 04:28:45;;;;;;;2.50;2.20;;;;;;;;;;5017032;28;20460;-51
2021/11/29 04:31:13;;;;;;;3.10;2.80;;;;;;;;;;5006980;28;21033;-50
2021/11/29 04:33:39;;;;;;;2.97;2.43;;;;;;;;;;5020755;28;20419;-51
2021/11/29 04:36:05;;;;;;;2.70;1.93;;;;;;;;;;5010663;28;20417;-51
2021/11/29 04:38:31;;;;;;;2.87;2.30;;;;;;;;;;5019804;28;20427;-50
2021/11/29 04:40:58;;;;;;;2.90;2.30;;;;;;;;;;5037293;28;20817;-49
2021/11/29 04:43:24;;;;;;;2.60;2.10;;;;;;;;;;5012504;28;20865;-52
2021/11/29 04:45:51;;;;;;;2.70;2.00;;;;;;;;;;5027371;28;20429;-50
2021/11/29 04:48:17;;;;;;;4.03;2.30;;;;;;;;;;5010197;28;20500;-51
2021/11/29 04:50:43;;;;;;;2.13;1.90;;;;;;;;;;4989647;28;20561;-51
2021/11/29 04:53:09;;;;;;;3.20;2.20;;;;;;;;;;5006699;28;20460;-51
2021/11/29 04:55:36;;;;;;;2.27;2.07;;;;;;;;;;5008005;28;20425;-50
2021/11/29 04:58:02;;;;;;;2.37;1.90;;;;;;;;;;5007732;28;20429;-50
2021/11/29 05:00:28;;;;;;;2.40;1.97;;;;;;;;;;4990819;28;20599;-51
2021/11/29 05:02:55;;;;;;;2.40;1.60;;;;;;;;;;4989127;28;20460;-51
2021/11/29 05:05:21;;;;;;;2.53;2.33;;;;;;;;;;4986933;28;20437;-50
2021/11/29 05:07:48;;;;;;;3.20;1.97;;;;;;;;;;5004801;28;20461;-49
2021/11/29 05:10:14;;;;;;;3.70;2.47;;;;;;;;;;4991036;28;20511;-51
2021/11/29 05:12:40;;;;;;;2.93;2.07;;;;;;;;;;5006270;28;20916;-50
2021/11/29 05:15:07;;;;;;;2.00;1.80;;;;;;;;;;5007452;28;20429;-51
2021/11/29 05:17:33;;;;;;;2.13;1.93;;;;;;;;;;5006941;28;20434;-50
2021/11/29 05:19:59;;;;;;;2.57;1.80;;;;;;;;;;5008565;28;20426;-52
2021/11/29 05:22:26;;;;;;;1.70;1.60;;;;;;;;;;4985656;28;20455;-50
2021/11/29 05:24:52;;;;;;;2.53;2.33;;;;;;;;;;4989644;28;20447;-50
2021/11/29 05:27:18;;;;;;;3.40;2.27;;;;;;;;;;5007132;28;20449;-50
2021/11/29 05:29:45;;;;;;;3.07;1.87;;;;;;;;;;4983959;28;20437;-50
2021/11/29 05:32:11;;;;;;;2.27;1.60;;;;;;;;;;4989441;28;20422;-50
2021/11/29 05:34:38;;;;;;;2.03;1.80;;;;;;;;;;4998521;28;20446;-51
2021/11/29 05:37:04;;;;;;;2.17;1.77;;;;;;;;;;4983989;28;21457;-49
2021/11/29 05:39:30;;;;;;;3.90;1.73;;;;;;;;;;4971981;28;20426;-51
2021/11/29 05:41:56;;;;;;;1.90;1.47;;;;;;;;;;4967657;28;20418;-50
2021/11/29 05:44:23;;;;;;;2.43;1.97;;;;;;;;;;4969500;28;20445;-50
2021/11/29 05:46:49;;;;;;;2.27;1.97;;;;;;;;;;4975610;28;20436;-50
2021/11/29 05:49:15;;;;;;;1.50;1.30;;;;;;;;;;4986956;28;20461;-51
2021/11/29 05:51:42;;;;;;;1.80;1.70;;;;;;;;;;5008403;28;20421;-50
2021/11/29 05:54:08;;;;;;;3.40;1.43;;;;;;;;;;4993427;28;20982;-50
2021/11/29 05:56:35;;;;;;;1.33;1.23;;;;;;;;;;5005679;28;20777;-50
2021/11/29 05:59:01;;;;;;;1.97;1.50;;;;;;;;;;4976541;28;20422;-50
2021/11/29 06:01:27;;;;;;;2.27;1.60;;;;;;;;;;4989237;28;20468;-51
2021/11/29 06:03:53;;;;;;;1.70;1.60;;;;;;;;;;4993306;28;20409;-48
2021/11/29 06:06:20;;;;;;;2.63;1.70;;;;;;;;;;5009975;28;20429;-51
2021/11/29 06:08:46;;;;;;;1.63;1.53;;;;;;;;;;5010749;28;20469;-50
2021/11/29 06:11:13;;;;;;;1.40;1.30;;;;;;;;;;4979996;28;20462;-51
2021/11/29 06:13:39;;;;;;;1.67;1.20;;;;;;;;;;4984254;28;20416;-50
2021/11/29 06:16:05;;;;;;;2.90;1.70;;;;;;;;;;5010856;28;20421;-50
2021/11/29 06:18:32;;;;;;;2.13;1.60;;;;;;;;;;5018906;28;20474;-51
2021/11/29 06:20:58;;;;;;;1.80;1.70;;;;;;;;;;5022079;28;20511;-50
2021/11/29 06:23:24;;;;;;;4.17;2.23;;;;;;;;;;5011444;28;20455;-51
2021/11/29 06:25:50;;;;;;;3.43;2.00;;;;;;;;;;5005628;28;20418;-52
2021/11/29 06:28:16;;;;;;;2.50;1.60;;;;;;;;;;5005637;28;20463;-51
2021/11/29 06:30:42;;;;;;;1.77;1.43;;;;;;;;;;5006078;28;20511;-50
2021/11/29 06:33:08;;;;;;;3.47;1.93;;;;;;;;;;5009667;28;20422;-50
2021/11/29 06:35:34;;;;;;;1.73;1.50;;;;;;;;;;4993982;28;20588;-49
2021/11/29 06:38:05;;;;;;;1.60;1.47;;;;;;;;;;4993057;28;20426;-51
2021/11/29 06:40:32;;;;;;;2.33;1.47;;;;;;;;;;4996480;28;20698;-52
2021/11/29 06:42:58;;;;;;;12.97;1.80;;;;;;;;;;5005545;28;20418;-52
2021/11/29 06:45:24;;;;;;;2.70;1.90;;;;;;;;;;4993879;28;20417;-51
2021/11/29 06:47:51;;;;;;;2.60;1.90;;;;;;;;;;4990898;28;20469;-52
2021/11/29 06:50:17;;;;;;;4.57;1.60;;;;;;;;;;5023713;28;20464;-51
2021/11/29 06:52:44;;;;;;;3.27;1.90;;;;;;;;;;5012001;28;20919;-50
2021/11/29 06:55:19;;;;;;;1.63;1.53;;;;;;;;;;5012336;28;20422;-51
2021/11/29 06:57:45;;;;;;;3.27;1.47;;;;;;;;;;5027976;28;20539;-51
2021/11/29 07:00:14;;;;;;;4.50;2.07;;;;;;;;;;5031005;28;20425;-52
2021/11/29 07:02:41;;;;;;;4.70;2.30;;;;;;;;;;5010285;28;20444;-51
2021/11/29 07:05:08;;;;;;;2.87;2.10;;;;;;;;;;5030873;28;20422;-52
2021/11/29 07:07:35;;;;;;;2.83;1.60;;;;;;;;;;5030008;28;20807;-52
2021/11/29 07:10:01;;;;;;;2.93;1.90;;;;;;;;;;5011905;28;20432;-52
2021/11/29 07:12:28;;;;;;;2.70;1.90;;;;;;;;;;5008994;28;20429;-51
2021/11/29 07:14:55;;;;;;;2.93;2.10;;;;;;;;;;5020549;28;20476;-51
2021/11/29 07:17:21;;;;;;;1.83;1.70;;;;;;;;;;5009807;28;20420;-51
2021/11/29 07:19:52;;;;;;;2.80;1.90;;;;;;;;;;5015330;28;20432;-51
2021/11/29 07:22:20;;;;;;;3.00;1.90;;;;;;;;;;5028771;28;20884;-51
2021/11/29 07:24:48;;;;;;;1.90;1.80;;;;;;;;;;4996175;28;20429;-51
2021/11/29 07:27:14;;;;;;;2.53;2.20;;;;;;;;;;5012312;28;20858;-50
2021/11/29 07:29:40;;;;;;;3.97;2.37;;;;;;;;;;5029896;28;20417;-51
2021/11/29 07:32:07;;;;;;;2.70;2.17;;;;;;;;;;5010950;28;20416;-52
2021/11/29 07:34:36;;;;;;;3.23;2.27;;;;;;;;;;5030226;28;20503;-50
2021/11/29 07:37:03;;;;;;;1.97;1.77;;;;;;;;;;5011613;28;20810;-51
2021/11/29 07:39:29;;;;;;;2.57;2.07;;;;;;;;;;5030132;28;20761;-51
2021/11/29 07:41:57;;;;;;;2.10;1.90;;;;;;;;;;4995319;28;20445;-50
2021/11/29 07:44:24;;;;;;;4.47;2.53;;;;;;;;;;5029508;28;20408;-50
2021/11/29 07:46:51;;;;;;;2.43;2.23;;;;;;;;;;5006587;28;20421;-49
2021/11/29 07:49:17;;;;;;;3.73;2.00;;;;;;;;;;5023793;28;20550;-51
2021/11/29 07:51:44;;;;;;;2.90;2.37;;;;;;;;;;5030250;28;20420;-51
2021/11/29 07:54:10;;;;;;;2.63;2.40;;;;;;;;;;5011430;28;20845;-50
2021/11/29 07:56:39;;;;;;;3.33;2.33;;;;;;;;;;5023476;28;20562;-50
2021/11/29 07:59:09;;;;;;;5.60;2.53;;;;;;;;;;5017202;28;21013;-49
2021/11/29 08:01:35;;;;;;;3.80;2.40;;;;;;;;;;5009755;28;20778;-51
2021/11/29 08:04:01;;;;;;;2.60;2.10;;;;;;;;;;5028592;28;20417;-51
2021/11/29 08:06:27;;;;;;;4.90;2.83;;;;;;;;;;5020997;28;20425;-53
2021/11/29 08:08:53;;;;;;;2.90;2.43;;;;;;;;;;5022512;28;20519;-50
2021/11/29 08:11:20;;;;;;;4.90;2.40;;;;;;;;;;5029519;28;20412;-51
2021/11/29 08:13:46;;;;;;;3.10;2.43;;;;;;;;;;5011449;28;20413;-49
2021/11/29 08:16:13;;;;;;;2.93;2.73;;;;;;;;;;5028182;28;20816;-51
2021/11/29 08:18:39;;;;;;;3.03;2.40;;;;;;;;;;5019892;28;20469;-51
2021/11/29 08:21:05;;;;;;;4.50;2.60;;;;;;;;;;5028389;28;20805;-51
2021/11/29 08:23:31;;;;;;;3.73;2.70;;;;;;;;;;5028651;28;20844;-50
2021/11/29 08:25:57;;;;;;;2.63;2.20;;;;;;;;;;5037487;28;20419;-52
2021/11/29 08:28:23;;;;;;;4.73;2.67;;;;;;;;;;5022574;28;20666;-51
2021/11/29 08:30:49;;;;;;;3.47;2.37;;;;;;;;;;5027726;28;20519;-51
2021/11/29 08:33:15;;;;;;;4.60;2.77;;;;;;;;;;5024260;28;20410;-51
2021/11/29 08:35:42;;;;;;;3.83;2.27;;;;;;;;;;5018252;28;20923;-50
2021/11/29 08:38:08;;;;;;;4.67;2.60;;;;;;;;;;5027447;28;20603;-52
2021/11/29 08:40:35;;;;;;;3.23;2.27;;;;;;;;;;5029170;28;20428;-50
2021/11/29 08:43:05;;;;;;;2.40;2.20;;;;;;;;;;5009915;28;20428;-52
2021/11/29 08:45:33;;;;;;;4.97;2.30;;;;;;;;;;5028751;28;20425;-50
2021/11/29 08:47:59;;;;;;;2.97;2.00;;;;;;;;;;5005630;28;20472;-52
2021/11/29 08:50:26;;;;;;;3.37;2.20;;;;;;;;;;5027069;28;20861;-51
2021/11/29 08:52:52;;;;;;;3.73;1.97;;;;;;;;;;5028652;28;20466;-52
2021/11/29 08:55:18;;;;;;;5.67;2.40;;;;;;;;;;5028585;28;20865;-52
2021/11/29 08:57:44;;;;;;;2.33;2.00;;;;;;;;;;5001869;28;20428;-51
2021/11/29 09:00:16;;;;;;;2.90;2.03;;;;;;;;;;5028693;28;20427;-51
2021/11/29 09:02:43;;;;;;;2.30;1.50;;;;;;;;;;5026485;28;20448;-50
2021/11/29 09:05:10;;;;;;;2.67;1.63;;;;;;;;;;5021680;28;20468;-53
2021/11/29 09:07:37;;;;;;;4.57;2.20;;;;;;;;;;5027935;28;20530;-51
2021/11/29 09:10:05;;;;;;;5.67;2.33;;;;;;;;;;5018260;28;20430;-49
2021/11/29 09:12:31;;;;;;;2.80;1.83;;;;;;;;;;5009844;28;20409;-51
2021/11/29 09:15:00;;;;;;;3.00;2.23;;;;;;;;;;5028591;28;20781;-50
2021/11/29 09:17:27;;;;;;;3.50;1.90;;;;;;;;;;5011586;28;20526;-51
2021/11/29 09:19:53;;;;;;;6.70;2.13;;;;;;;;;;5028306;28;20408;-51
2021/11/29 09:22:19;;;;;;;2.77;2.13;;;;;;;;;;5004714;28;20425;-53
2021/11/29 09:24:46;;;;;;;3.60;2.20;;;;;;;;;;5021472;28;21033;-50
2021/11/29 09:27:12;;;;;;;2.43;2.23;;;;;;;;;;4991875;28;20457;-50
2021/11/29 09:29:38;;;;;;;4.20;1.90;;;;;;;;;;5026304;28;20923;-51
2021/11/29 09:32:04;;;;;;;2.20;2.00;;;;;;;;;;5027012;28;20479;-51
2021/11/29 09:34:31;;;;;;;1.93;1.57;;;;;;;;;;5022644;28;20186;-49
2021/11/29 09:36:58;;;;;;;3.37;2.03;;;;;;;;;;5022612;28;20455;-50
2021/11/29 09:39:24;;;;;;;3.53;1.93;;;;;;;;;;5027967;28;20416;-51
2021/11/29 09:41:50;;;;;;;1.83;1.60;;;;;;;;;;5031797;28;20415;-52
2021/11/29 09:44:16;;;;;;;2.10;1.90;;;;;;;;;;5032800;28;20412;-50
2021/11/29 09:46:44;;;;;;;3.73;2.00;;;;;;;;;;5025239;28;20479;-50
2021/11/29 09:49:11;;;;;;;2.87;1.83;;;;;;;;;;5027204;28;20491;-51
2021/11/29 09:51:38;;;;;;;2.10;1.63;;;;;;;;;;5028075;28;20412;-50
2021/11/29 09:54:07;;;;;;;2.90;1.90;;;;;;;;;;5027586;28;20421;-52
2021/11/29 09:56:34;;;;;;;2.20;1.87;;;;;;;;;;5009431;28;20482;-50
2021/11/29 09:59:00;;;;;;;3.13;1.93;;;;;;;;;;5009501;28;20432;-51
2021/11/29 10:01:26;;;;;;;3.87;1.73;;;;;;;;;;5026599;28;20518;-50
2021/11/29 10:03:53;;;;;;;3.17;1.90;;;;;;;;;;5007048;28;20420;-50
2021/11/29 10:06:19;;;;;;;4.63;2.37;;;;;;;;;;5015872;28;20438;-52
2021/11/29 10:08:45;;;;;;;5.63;2.50;;;;;;;;;;5017345;28;20460;-51
2021/11/29 10:11:13;;;;;;;2.23;2.00;;;;;;;;;;5019178;28;20416;-50
2021/11/29 10:13:46;;;;;;;2.10;1.83;;;;;;;;;;4993169;28;20430;-51
2021/11/29 10:16:12;;;;;;;3.50;2.37;;;;;;;;;;5016483;28;20915;-50
2021/11/29 10:18:39;;;;;;;2.53;1.87;;;;;;;;;;5027720;28;20428;-50
2021/11/29 10:21:09;;;;;;;3.57;2.13;;;;;;;;;;5026713;28;20433;-51
2021/11/29 10:23:43;;;;;;;3.63;2.73;;;;;;;;;;5023905;28;20500;-50
2021/11/29 10:26:18;;;;;;;2.30;1.90;;;;;;;;;;4990444;28;20421;-49
2021/11/29 10:28:46;;;;;;;3.60;2.13;;;;;;;;;;5026214;28;20983;-51
2021/11/29 10:31:15;;;;;;;3.37;1.80;;;;;;;;;;5008493;28;20984;-50
2021/11/29 10:33:46;;;;;;;5.67;2.03;;;;;;;;;;5030033;28;20460;-50
2021/11/29 10:36:13;;;;;;;2.60;2.20;;;;;;;;;;5025039;28;20489;-50
2021/11/29 10:38:40;;;;;;;4.37;2.10;;;;;;;;;;5020886;28;20424;-50
2021/11/29 10:41:07;;;;;;;2.77;2.33;;;;;;;;;;5030771;28;20424;-52
2021/11/29 10:43:38;;;;;;;2.43;2.23;;;;;;;;;;5022051;28;20423;-50
2021/11/29 10:46:22;;;;;;;2.60;2.03;;;;;;;;;;5015631;28;20425;-50
2021/11/29 10:48:49;;;;;;;4.80;2.03;;;;;;;;;;5023520;28;20610;-51
2021/11/29 10:51:16;;;;;;;2.40;2.03;;;;;;;;;;5011833;28;20459;-51
2021/11/29 10:53:47;;;;;;;2.37;1.93;;;;;;;;;;5022544;28;20417;-50
2021/11/29 10:56:13;;;;;;;2.67;2.23;;;;;;;;;;5013507;28;20449;-51
2021/11/29 10:58:44;;;;;;;2.77;2.37;;;;;;;;;;5011051;28;20959;-50
2021/11/29 11:01:10;;;;;;;3.00;2.50;;;;;;;;;;5010973;28;20174;-50
2021/11/29 11:03:52;;;;;;;2.33;1.90;;;;;;;;;;5030868;28;20459;-50
2021/11/29 11:06:25;;;;;;;3.80;2.30;;;;;;;;;;5022577;28;20421;-49
2021/11/29 11:08:51;;;;;;;2.83;2.47;;;;;;;;;;5001904;28;20465;-50
2021/11/29 11:11:36;;;;;;;3.47;2.27;;;;;;;;;;5018169;28;20424;-49
2021/11/29 11:14:04;;;;;;;4.97;2.00;;;;;;;;;;5029475;28;20616;-51
2021/11/29 11:16:47;;;;;;;2.23;2.03;;;;;;;;;;5011282;28;20777;-51
2021/11/29 11:19:25;;;;;;;3.23;2.53;;;;;;;;;;5001141;28;20775;-50
2021/11/29 11:21:52;;;;;;;4.50;2.53;;;;;;;;;;5020018;28;20451;-50
2021/11/29 11:24:20;;;;;;;2.87;2.17;;;;;;;;;;5029870;28;20416;-49
2021/11/29 11:26:47;;;;;;;3.90;2.50;;;;;;;;;;5012317;28;20432;-51
2021/11/29 11:29:15;;;;;;;2.10;1.90;;;;;;;;;;4995113;28;20464;-51
2021/11/29 11:31:41;;;;;;;3.90;2.10;;;;;;;;;;5010776;28;20436;-52
2021/11/29 11:34:08;;;;;;;2.30;2.03;;;;;;;;;;5028617;28;20479;-49
2021/11/29 11:36:35;;;;;;;2.90;2.00;;;;;;;;;;5026196;28;20425;-49
2021/11/29 11:39:07;;;;;;;3.30;2.33;;;;;;;;;;5014337;28;20908;-51
2021/11/29 11:41:33;;;;;;;7.03;2.50;;;;;;;;;;5016895;28;20896;-49
2021/11/29 11:44:07;;;;;;;3.27;1.97;;;;;;;;;;5024014;28;20416;-50
2021/11/29 11:46:33;;;;;;;3.20;1.93;;;;;;;;;;5010169;28;20942;-50
2021/11/29 11:48:59;;;;;;;3.30;2.57;;;;;;;;;;5029097;28;20823;-51
2021/11/29 11:51:26;;;;;;;2.70;2.23;;;;;;;;;;4994118;28;20440;-51
2021/11/29 11:53:52;;;;;;;5.97;2.03;;;;;;;;;;5027481;28;20421;-50
2021/11/29 11:56:18;;;;;;;2.77;2.13;;;;;;;;;;5029238;28;20448;-50
2021/11/29 11:58:54;;;;;;;3.67;2.07;;;;;;;;;;5025343;28;20198;-51
2021/11/29 12:01:24;;;;;;;2.03;1.53;;;;;;;;;;5017436;28;20411;-53
2021/11/29 12:03:50;;;;;;;2.20;2.00;;;;;;;;;;5037884;28;20496;-50
2021/11/29 12:06:18;;;;;;;3.70;2.40;;;;;;;;;;5005645;28;20441;-50
2021/11/29 12:08:49;;;;;;;4.40;2.47;;;;;;;;;;5015073;28;20201;-50
2021/11/29 12:11:28;;;;;;;2.93;2.13;;;;;;;;;;5012286;28;20192;-49
2021/11/29 12:14:06;;;;;;;2.17;1.97;;;;;;;;;;5029275;28;20423;-50
2021/11/29 12:16:43;;;;;;;2.77;2.10;;;;;;;;;;5028056;28;20663;-49
2021/11/29 12:19:27;;;;;;;2.33;2.03;;;;;;;;;;5029554;28;20177;-49
2021/11/29 12:21:55;;;;;;;3.80;2.17;;;;;;;;;;5009412;28;20487;-51
2021/11/29 12:24:23;;;;;;;4.33;2.47;;;;;;;;;;5029272;28;20428;-51
2021/11/29 12:26:56;;;;;;;2.50;1.93;;;;;;;;;;5029308;28;20417;-50
2021/11/29 12:29:22;;;;;;;2.30;2.07;;;;;;;;;;5028015;28;20236;-51
2021/11/29 12:31:50;;;;;;;2.73;2.40;;;;;;;;;;4993917;28;20193;-51
2021/11/29 12:34:16;;;;;;;2.87;2.37;;;;;;;;;;5024598;28;20173;-51
2021/11/29 12:37:00;;;;;;;4.50;2.70;;;;;;;;;;5028196;28;20181;-52
2021/11/29 12:39:44;;;;;;;2.47;2.00;;;;;;;;;;5028832;28;20225;-53
2021/11/29 12:42:14;;;;;;;2.40;2.20;;;;;;;;;;5028747;28;20201;-51
2021/11/29 12:45:00;;;;;;;5.07;2.60;;;;;;;;;;5027628;28;20421;-49
2021/11/29 12:47:28;;;;;;;3.70;1.90;;;;;;;;;;5027724;28;20201;-53
2021/11/29 12:49:56;;;;;;;2.50;1.70;;;;;;;;;;5010793;28;20807;-51
2021/11/29 12:52:39;;;;;;;4.37;2.10;;;;;;;;;;5010732;28;20433;-51
2021/11/29 12:55:25;;;;;;;2.70;2.00;;;;;;;;;;5028026;28;20436;-50
2021/11/29 12:58:09;;;;;;;2.53;2.10;;;;;;;;;;5027893;28;20660;-49
2021/11/29 13:00:37;;;;;;;3.53;2.30;;;;;;;;;;5019771;28;20458;-49
2021/11/29 13:03:05;;;;;;;1.97;1.80;;;;;;;;;;5027408;28;20919;-50
2021/11/29 13:05:34;;;;;;;2.40;2.20;;;;;;;;;;5028813;28;20221;-51
2021/11/29 13:08:22;;;;;;;2.33;1.70;;;;;;;;;;5024504;28;20650;-51
2021/11/29 13:10:51;;;;;;;2.83;2.47;;;;;;;;;;5023899;28;20676;-52
2021/11/29 13:13:23;;;;;;;2.67;2.37;;;;;;;;;;5027422;28;20946;-51
2021/11/29 13:15:50;;;;;;;4.70;2.03;;;;;;;;;;5024477;28;20180;-52
2021/11/29 13:18:35;;;;;;;3.47;2.10;;;;;;;;;;5027118;28;20182;-49
2021/11/29 13:21:02;;;;;;;4.53;2.83;;;;;;;;;;5028185;28;20416;-50
2021/11/29 13:23:28;;;;;;;5.27;2.03;;;;;;;;;;5010473;28;20192;-50
2021/11/29 13:26:02;;;;;;;3.57;2.40;;;;;;;;;;5010567;28;20292;-51
2021/11/29 13:28:28;;;;;;;2.77;2.47;;;;;;;;;;5027639;28;20458;-51
2021/11/29 13:30:54;;;;;;;3.77;2.47;;;;;;;;;;5025959;28;20181;-50
2021/11/29 13:33:21;;;;;;;4.37;2.10;;;;;;;;;;5009569;28;20623;-50
2021/11/29 13:35:47;;;;;;;3.00;2.10;;;;;;;;;;5025108;28;20194;-50
2021/11/29 13:38:13;;;;;;;3.20;2.40;;;;;;;;;;5027378;28;20182;-52
2021/11/29 13:40:40;;;;;;;4.53;2.27;;;;;;;;;;5027929;28;20181;-51
2021/11/29 13:43:06;;;;;;;3.40;2.17;;;;;;;;;;5027477;28;20212;-50
2021/11/29 13:45:38;;;;;;;2.97;2.23;;;;;;;;;;5027350;28;20601;-51
2021/11/29 13:48:09;;;;;;;2.37;1.70;;;;;;;;;;5008318;28;20205;-50
2021/11/29 13:50:37;;;;;;;2.30;2.00;;;;;;;;;;5010486;28;20572;-52
2021/11/29 13:53:08;;;;;;;3.07;2.33;;;;;;;;;;5026975;28;20177;-50
2021/11/29 13:55:36;;;;;;;4.47;2.03;;;;;;;;;;5027913;28;20181;-50
2021/11/29 13:58:24;;;;;;;3.43;2.47;;;;;;;;;;5027763;28;20186;-50
2021/11/29 14:00:52;;;;;;;2.40;1.90;;;;;;;;;;5017325;28;20231;-52
2021/11/29 14:03:26;;;;;;;5.60;2.10;;;;;;;;;;5016587;28;20215;-50
2021/11/29 14:05:58;;;;;;;4.03;1.90;;;;;;;;;;5016502;28;20178;-52
2021/11/29 14:08:29;;;;;;;2.67;1.90;;;;;;;;;;5001045;28;20296;-50
2021/11/29 14:10:58;;;;;;;2.10;1.83;;;;;;;;;;5013898;28;20227;-49
2021/11/29 14:13:32;;;;;;;2.93;2.13;;;;;;;;;;5031108;28;20420;-51
2021/11/29 14:16:09;;;;;;;1.97;1.77;;;;;;;;;;5026677;28;20185;-51
2021/11/29 14:18:38;;;;;;;2.60;2.10;;;;;;;;;;5032111;28;20181;-51
2021/11/29 14:21:08;;;;;;;1.90;1.70;;;;;;;;;;5013162;28;20268;-52
2021/11/29 14:23:36;;;;;;;2.23;2.03;;;;;;;;;;5022866;28;20182;-50
2021/11/29 14:26:02;;;;;;;1.90;1.70;;;;;;;;;;5051883;28;20184;-51
2021/11/29 14:28:29;;;;;;;2.30;1.60;;;;;;;;;;5023354;28;20295;-50
2021/11/29 14:30:55;;;;;;;3.70;1.90;;;;;;;;;;5022040;28;20178;-51
2021/11/29 14:33:24;;;;;;;3.93;1.90;;;;;;;;;;5022003;28;20545;-50
2021/11/29 14:35:50;;;;;;;2.77;2.00;;;;;;;;;;5031773;28;20260;-50
2021/11/29 14:38:16;;;;;;;2.53;1.83;;;;;;;;;;5031347;28;20253;-49
2021/11/29 14:40:42;;;;;;;2.13;1.93;;;;;;;;;;5031419;28;20185;-50
2021/11/29 14:43:08;;;;;;;2.80;1.90;;;;;;;;;;5029687;28;20628;-51
2021/11/29 14:45:36;;;;;;;2.77;1.90;;;;;;;;;;5031175;28;20210;-51
2021/11/29 14:48:03;;;;;;;2.77;2.13;;;;;;;;;;5028904;28;20201;-49